Time;durP1;ratioP1;P1;durP2;ratioP2;P2;SDS_P1;SDS_P2;PMS_P1;PMS_P2;Temp;Humidity;BMP_temperature;BMP_pressure;BME280_temperature;BME280_humidity;BME280_pressure;Samples;Min_cycle;Max_cycle;Signal;HPM_P1;HPM_P2
2021/05/12 00:01:00;;;;;;;3.20;2.07;;;14.00;99.90;;;;;;6257187;28;20236;-71
2021/05/12 00:04:02;;;;;;;3.93;2.47;;;14.00;99.90;;;;;;6237834;28;20389;-71
2021/05/12 00:07:05;;;;;;;3.10;1.90;;;14.00;99.90;;;;;;6204890;28;20732;-71
2021/05/12 00:10:11;;;;;;;2.47;1.93;;;14.00;99.90;;;;;;6214268;28;20251;-71
2021/05/12 00:13:13;;;;;;;6.03;1.93;;;14.00;99.90;;;;;;6233386;28;20319;-71
2021/05/12 00:16:15;;;;;;;2.77;1.97;;;14.00;99.90;;;;;;6215320;28;20366;-71
2021/05/12 00:19:19;;;;;;;2.97;2.30;;;14.10;99.90;;;;;;6213521;28;20776;-72
2021/05/12 00:25:43;;;;;;;2.93;2.23;;;14.00;99.90;;;;;;6238645;28;20238;-71
2021/05/12 00:28:45;;;;;;;4.20;2.43;;;14.00;99.90;;;;;;6239098;28;20227;-71
2021/05/12 00:31:47;;;;;;;3.97;2.40;;;13.90;99.90;;;;;;6238339;28;20834;-71
2021/05/12 00:34:49;;;;;;;2.90;2.20;;;13.90;99.90;;;;;;6256388;28;20665;-71
2021/05/12 00:37:52;;;;;;;2.40;2.20;;;13.90;99.90;;;;;;6255790;28;20799;-71
2021/05/12 00:40:55;;;;;;;2.90;2.60;;;13.90;99.90;;;;;;6233470;28;21000;-71
2021/05/12 00:43:57;;;;;;;2.60;2.40;;;14.00;99.90;;;;;;6215211;28;20234;-71
2021/05/12 00:47:04;;;;;;;2.10;1.90;;;14.00;99.90;;;;;;6231237;28;20231;-71
2021/05/12 00:50:09;;;;;;;3.70;2.03;;;14.10;99.90;;;;;;6248386;28;20689;-71
2021/05/12 00:53:11;;;;;;;3.30;2.20;;;14.10;99.90;;;;;;6256456;28;20235;-71
2021/05/12 00:56:14;;;;;;;2.80;2.30;;;14.20;99.90;;;;;;6219673;28;20231;-71
2021/05/12 00:59:17;;;;;;;3.60;2.20;;;14.30;99.90;;;;;;6253642;28;20773;-72
2021/05/12 01:02:21;;;;;;;2.20;1.80;;;14.30;99.90;;;;;;6254079;28;20601;-72
2021/05/12 01:05:23;;;;;;;2.57;2.37;;;14.30;99.90;;;;;;6238205;28;20637;-72
2021/05/12 01:08:27;;;;;;;3.13;2.40;;;14.40;99.90;;;;;;6254785;28;20609;-71
2021/05/12 01:11:29;;;;;;;3.10;2.00;;;14.40;99.90;;;;;;6255086;28;20364;-71
2021/05/12 01:14:32;;;;;;;4.13;2.57;;;14.50;99.90;;;;;;6238741;28;20665;-71
2021/05/12 01:17:34;;;;;;;2.50;2.13;;;14.50;99.90;;;;;;6254863;28;20285;-71
2021/05/12 01:20:59;;;;;;;2.87;2.20;;;14.60;99.90;;;;;;6254422;28;20234;-71
2021/05/12 01:24:02;;;;;;;2.93;2.10;;;14.70;99.90;;;;;;6256070;28;20239;-71
2021/05/12 01:27:04;;;;;;;2.00;1.90;;;14.70;99.90;;;;;;6254389;28;20231;-71
2021/05/12 01:30:07;;;;;;;3.83;2.57;;;14.70;99.90;;;;;;6254985;28;20227;-71
2021/05/12 01:33:10;;;;;;;6.20;4.80;;;14.70;99.90;;;;;;6255296;28;20295;-72
2021/05/12 01:36:12;;;;;;;5.17;3.67;;;14.70;99.90;;;;;;6254141;28;20680;-71
2021/05/12 01:39:16;;;;;;;3.03;2.57;;;14.80;99.90;;;;;;6246969;28;20208;-71
2021/05/12 01:42:18;;;;;;;5.40;3.53;;;14.90;99.90;;;;;;6245550;28;20266;-71
2021/05/12 01:45:20;;;;;;;4.00;3.17;;;14.90;99.90;;;;;;6247341;28;20218;-71
2021/05/12 01:48:24;;;;;;;3.90;2.77;;;14.90;99.90;;;;;;6231485;28;20236;-71
2021/05/12 01:51:26;;;;;;;4.30;3.10;;;14.90;99.90;;;;;;6229134;28;20710;-71
2021/05/12 01:54:28;;;;;;;6.50;3.80;;;14.90;99.90;;;;;;6230501;28;20597;-71
2021/05/12 01:57:30;;;;;;;3.57;2.87;;;14.90;99.90;;;;;;6229502;28;20235;-71
2021/05/12 02:00:35;;;;;;;2.93;2.73;;;14.90;99.90;;;;;;6243804;28;20235;-71
2021/05/12 02:03:38;;;;;;;6.60;3.40;;;14.90;99.90;;;;;;6228836;28;20271;-71
2021/05/12 02:06:41;;;;;;;3.47;3.17;;;14.90;99.90;;;;;;6228341;28;20310;-71
2021/05/12 02:09:49;;;;;;;6.33;3.03;;;14.90;99.90;;;;;;6230918;28;20232;-71
2021/05/12 02:12:52;;;;;;;4.40;4.00;;;15.00;99.90;;;;;;6238537;28;20688;-71
2021/05/12 02:15:56;;;;;;;7.10;4.87;;;15.00;99.90;;;;;;6234956;28;20235;-72
2021/05/12 02:18:58;;;;;;;4.03;3.63;;;15.10;99.90;;;;;;6229763;28;20318;-71
2021/05/12 02:22:00;;;;;;;10.13;8.70;;;15.10;99.90;;;;;;6230402;28;20277;-71
2021/05/12 02:25:05;;;;;;;6.50;5.67;;;15.10;99.90;;;;;;6230737;28;20342;-71
2021/05/12 02:28:09;;;;;;;5.27;4.33;;;15.20;99.90;;;;;;6230769;28;20231;-71
2021/05/12 02:31:11;;;;;;;6.53;4.10;;;15.20;99.90;;;;;;6229172;28;20232;-71
2021/05/12 02:34:13;;;;;;;4.73;4.33;;;15.10;99.90;;;;;;6228873;28;20320;-71
2021/05/12 02:37:16;;;;;;;7.17;5.13;;;15.00;99.90;;;;;;6213550;28;20243;-71
2021/05/12 02:40:20;;;;;;;5.20;3.90;;;15.00;99.90;;;;;;6212216;28;20228;-71
2021/05/12 02:43:23;;;;;;;7.20;6.50;;;15.00;99.90;;;;;;6206313;28;20299;-72
2021/05/12 02:46:25;;;;;;;12.47;11.17;;;14.90;99.90;;;;;;6225254;28;20236;-72
2021/05/12 02:49:27;;;;;;;11.13;10.03;;;14.90;99.90;;;;;;6225705;28;20256;-71
2021/05/12 02:52:30;;;;;;;10.50;9.50;;;15.00;99.90;;;;;;6259872;28;20762;-70
2021/05/12 02:55:33;;;;;;;13.67;12.27;;;15.20;99.90;;;;;;6259722;28;20265;-71
2021/05/12 02:58:35;;;;;;;12.63;11.37;;;15.30;99.90;;;;;;6261252;28;20314;-71
2021/05/12 03:01:37;;;;;;;10.57;9.57;;;15.40;99.90;;;;;;6235341;28;20652;-71
2021/05/12 03:04:40;;;;;;;11.20;10.10;;;15.50;99.90;;;;;;6233372;28;20305;-71
2021/05/12 03:07:42;;;;;;;9.80;8.87;;;15.50;99.90;;;;;;6234252;28;20628;-71
2021/05/12 03:10:44;;;;;;;10.93;9.90;;;15.60;99.90;;;;;;6236210;28;20267;-72
2021/05/12 03:13:47;;;;;;;12.37;11.03;;;15.60;99.90;;;;;;6235507;28;20615;-71
2021/05/12 03:16:49;;;;;;;11.37;10.27;;;15.60;99.90;;;;;;6235027;28;21792;-71
2021/05/12 03:19:52;;;;;;;11.70;10.50;;;15.60;99.90;;;;;;6235804;28;20235;-71
2021/05/12 03:22:55;;;;;;;8.23;7.43;;;15.60;99.90;;;;;;6233212;28;20235;-71
2021/05/12 03:25:57;;;;;;;9.03;8.23;;;15.50;99.90;;;;;;6234724;28;20346;-71
2021/05/12 03:29:00;;;;;;;14.10;12.70;;;15.50;99.90;;;;;;6233750;28;20341;-71
2021/05/12 03:32:03;;;;;;;17.27;14.43;;;15.40;99.90;;;;;;6233411;28;20235;-71
2021/05/12 03:35:07;;;;;;;15.53;13.93;;;15.40;99.90;;;;;;6234421;28;20313;-71
2021/05/12 03:38:11;;;;;;;18.43;16.33;;;15.50;99.90;;;;;;6235246;28;20228;-71
2021/05/12 03:41:14;;;;;;;16.30;14.60;;;15.60;99.90;;;;;;6192950;28;20229;-71
2021/05/12 03:44:16;;;;;;;16.60;14.97;;;15.60;99.90;;;;;;6209442;28;20248;-70
2021/05/12 03:47:18;;;;;;;17.00;15.20;;;15.60;99.90;;;;;;6208105;28;20310;-72
2021/05/12 03:50:24;;;;;;;15.90;14.30;;;15.70;99.90;;;;;;6223801;28;20232;-72
2021/05/12 03:53:26;;;;;;;16.77;15.13;;;15.70;99.90;;;;;;6232569;28;20295;-72
2021/05/12 03:56:29;;;;;;;17.60;15.80;;;15.80;99.90;;;;;;6232815;28;20322;-71
2021/05/12 03:59:31;;;;;;;16.43;14.83;;;15.90;99.90;;;;;;6233520;28;20589;-71
2021/05/12 04:02:33;;;;;;;17.13;15.33;;;16.00;99.90;;;;;;6235236;28;20264;-72
2021/05/12 04:05:36;;;;;;;15.40;13.90;;;16.00;99.90;;;;;;6232851;28;20266;-71
2021/05/12 04:08:38;;;;;;;12.43;11.23;;;16.10;99.90;;;;;;6231549;28;20778;-71
2021/05/12 04:11:44;;;;;;;13.93;12.47;;;16.20;99.90;;;;;;6231513;28;20240;-71
2021/05/12 04:14:46;;;;;;;14.10;12.80;;;16.30;99.90;;;;;;6231500;28;20228;-72
2021/05/12 04:17:49;;;;;;;12.90;11.50;;;16.30;99.90;;;;;;6231278;28;20239;-71
2021/05/12 04:20:52;;;;;;;11.50;9.27;;;16.20;99.90;;;;;;6233996;28;20238;-72
2021/05/12 04:23:56;;;;;;;7.97;6.40;;;16.10;99.90;;;;;;6230702;28;20239;-72
2021/05/12 04:26:58;;;;;;;6.03;4.20;;;16.10;99.90;;;;;;6233046;28;20228;-71
2021/05/12 04:30:00;;;;;;;4.17;3.13;;;16.00;99.90;;;;;;6233917;28;20617;-72
2021/05/12 04:33:04;;;;;;;2.20;1.90;;;15.80;99.90;;;;;;6232664;28;20199;-71
2021/05/12 04:36:07;;;;;;;1.10;1.00;;;15.70;99.90;;;;;;6214859;28;20207;-71
2021/05/12 04:39:09;;;;;;;1.13;1.00;;;15.60;99.90;;;;;;6227213;28;20295;-70
2021/05/12 04:42:11;;;;;;;0.73;0.60;;;15.50;99.90;;;;;;6205818;28;20290;-71
2021/05/12 04:45:16;;;;;;;3.43;0.53;;;15.50;99.90;;;;;;6208993;28;20251;-70
2021/05/12 04:48:19;;;;;;;0.80;0.50;;;15.40;99.90;;;;;;6207075;28;20233;-70
2021/05/12 04:51:21;;;;;;;0.40;0.30;;;15.50;99.90;;;;;;6230441;28;20921;-70
2021/05/12 04:54:24;;;;;;;1.10;0.40;;;15.50;99.90;;;;;;6231620;28;20228;-71
2021/05/12 04:57:26;;;;;;;0.40;0.23;;;15.50;99.90;;;;;;6230727;28;20227;-71
2021/05/12 05:00:29;;;;;;;0.30;0.30;;;15.40;99.90;;;;;;6230028;28;20234;-72
2021/05/12 05:03:31;;;;;;;0.20;0.20;;;15.40;99.90;;;;;;6232880;28;20227;-71
2021/05/12 05:06:34;;;;;;;0.30;0.30;;;15.30;99.90;;;;;;6231620;28;20220;-71
2021/05/12 05:09:37;;;;;;;0.23;0.23;;;15.30;99.90;;;;;;6215011;28;20224;-72
2021/05/12 05:12:39;;;;;;;0.50;0.20;;;15.20;99.90;;;;;;6230429;28;20640;-71
2021/05/12 05:15:42;;;;;;;0.10;0.10;;;15.20;99.90;;;;;;6232299;28;20297;-71
2021/05/12 05:18:45;;;;;;;0.43;0.17;;;15.30;99.90;;;;;;6230404;28;20223;-71
2021/05/12 05:21:48;;;;;;;0.37;0.37;;;15.20;99.90;;;;;;6231184;28;20227;-71
2021/05/12 05:24:52;;;;;;;0.10;0.10;;;15.20;99.90;;;;;;6230960;28;20250;-71
2021/05/12 05:27:54;;;;;;;0.20;0.20;;;15.20;99.90;;;;;;6230844;28;20246;-73
2021/05/12 05:30:56;;;;;;;0.10;0.10;;;15.30;99.90;;;;;;6232567;28;20231;-71
2021/05/12 05:34:17;;;;;;;0.10;0.10;;;15.20;99.90;;;;;;6230391;28;20236;-72
2021/05/12 05:37:38;;;;;;;0.10;0.10;;;15.30;99.90;;;;;;6232925;28;20252;-71
2021/05/12 05:40:59;;;;;;;0.30;0.10;;;15.30;99.90;;;;;;6209637;28;20287;-71
2021/05/12 05:44:20;;;;;;;0.10;0.10;;;15.30;99.90;;;;;;6206020;28;20233;-72
2021/05/12 05:47:40;;;;;;;0.10;0.10;;;15.30;99.90;;;;;;6220585;28;20603;-71
2021/05/12 05:51:02;;;;;;;0.10;0.10;;;15.20;99.90;;;;;;6226382;28;20228;-72
2021/05/12 05:54:23;;;;;;;0.10;0.10;;;15.20;99.90;;;;;;6229850;28;20232;-71
2021/05/12 05:57:44;;;;;;;0.10;0.10;;;15.10;99.90;;;;;;6231360;28;20278;-71
2021/05/12 06:01:05;;;;;;;0.10;0.10;;;15.00;99.90;;;;;;6230663;28;20228;-71
2021/05/12 06:04:07;;;;;;;0.50;0.10;;;15.00;99.90;;;;;;6230985;28;20223;-72
2021/05/12 06:07:28;;;;;;;0.10;0.10;;;14.90;99.90;;;;;;6230125;28;20243;-73
2021/05/12 06:10:49;;;;;;;0.10;0.10;;;14.80;99.90;;;;;;6229601;28;20266;-74
2021/05/12 06:14:10;;;;;;;0.40;0.10;;;14.50;99.90;;;;;;6231395;28;20244;-74
2021/05/12 06:17:32;;;;;;;0.20;0.20;;;14.40;99.90;;;;;;6231764;28;20236;-73
2021/05/12 06:20:53;;;;;;;0.10;0.10;;;14.30;99.90;;;;;;6234395;28;20319;-73
2021/05/12 06:24:35;;;;;;;0.13;0.13;;;14.10;99.90;;;;;;6112469;28;20250;-73
2021/05/12 06:27:56;;;;;;;0.20;0.20;;;14.10;99.90;;;;;;6119716;28;20732;-73
2021/05/12 06:31:17;;;;;;;0.10;0.10;;;14.10;99.90;;;;;;6233707;28;20608;-73
2021/05/12 06:34:37;;;;;;;0.10;0.10;;;14.30;99.90;;;;;;6234926;28;20228;-73
2021/05/12 06:38:15;;;;;;;0.93;0.20;;;14.50;99.90;;;;;;6160634;28;20694;-74
2021/05/12 06:41:17;;;;;;;0.50;0.10;;;14.70;99.90;;;;;;6234714;28;20304;-74
2021/05/12 06:44:22;;;;;;;0.10;0.10;;;14.80;99.90;;;;;;6241662;28;20239;-73
2021/05/12 06:47:24;;;;;;;1.10;0.13;;;15.00;99.90;;;;;;6259750;28;20242;-73
2021/05/12 06:50:27;;;;;;;0.10;0.10;;;15.20;99.90;;;;;;6226840;28;20243;-73
2021/05/12 06:53:32;;;;;;;0.10;0.10;;;15.20;99.90;;;;;;6235327;28;20227;-73
2021/05/12 06:56:34;;;;;;;0.10;0.10;;;15.20;99.90;;;;;;6216973;28;20231;-72
2021/05/12 06:59:36;;;;;;;0.40;0.20;;;15.00;99.90;;;;;;6234677;28;20570;-73
2021/05/12 07:02:40;;;;;;;0.57;0.17;;;14.70;99.90;;;;;;6235030;28;20296;-73
2021/05/12 07:05:43;;;;;;;0.23;0.10;;;14.60;99.90;;;;;;6233949;28;20234;-72
2021/05/12 07:08:50;;;;;;;0.27;0.20;;;14.40;99.90;;;;;;6216224;28;20235;-72
2021/05/12 07:11:52;;;;;;;0.10;0.10;;;14.10;99.90;;;;;;6232923;28;20228;-74
2021/05/12 07:14:55;;;;;;;0.10;0.10;;;14.00;99.90;;;;;;6234412;28;20239;-73
2021/05/12 07:17:58;;;;;;;0.13;0.10;;;13.80;99.90;;;;;;6216245;28;20588;-73
2021/05/12 07:21:00;;;;;;;1.37;0.20;;;13.70;99.90;;;;;;6226465;28;20692;-73
2021/05/12 07:24:03;;;;;;;1.60;0.20;;;13.60;99.90;;;;;;6257260;28;20219;-73
2021/05/12 07:27:05;;;;;;;0.33;0.20;;;13.50;99.90;;;;;;6239670;28;20210;-72
2021/05/12 07:30:08;;;;;;;0.20;0.20;;;13.50;99.90;;;;;;6257116;28;20302;-72
2021/05/12 07:33:11;;;;;;;0.63;0.20;;;13.40;99.90;;;;;;6256608;28;20214;-72
2021/05/12 07:36:14;;;;;;;1.33;0.10;;;13.50;99.90;;;;;;6239352;28;20209;-74
2021/05/12 07:39:17;;;;;;;0.10;0.10;;;13.50;99.90;;;;;;6249404;28;20299;-73
2021/05/12 07:42:20;;;;;;;0.77;0.20;;;13.60;99.90;;;;;;6234176;28;20611;-72
2021/05/12 07:45:23;;;;;;;0.20;0.10;;;13.50;99.90;;;;;;6248075;28;20714;-73
2021/05/12 07:48:40;;;;;;;0.20;0.20;;;13.40;99.90;;;;;;6248923;28;20234;-73
2021/05/12 07:51:42;;;;;;;0.10;0.10;;;13.30;99.90;;;;;;6231833;28;20310;-73
2021/05/12 07:54:47;;;;;;;0.43;0.17;;;13.30;99.90;;;;;;6232587;28;20254;-71
2021/05/12 07:57:50;;;;;;;0.10;0.10;;;13.10;99.90;;;;;;6232810;28;20605;-70
2021/05/12 08:00:53;;;;;;;0.40;0.20;;;13.10;99.90;;;;;;6233335;28;20226;-70
2021/05/12 08:03:55;;;;;;;0.40;0.20;;;13.00;99.90;;;;;;6231935;28;20254;-70
2021/05/12 08:06:58;;;;;;;0.23;0.10;;;12.80;99.90;;;;;;6214446;28;20232;-69
2021/05/12 08:10:03;;;;;;;0.30;0.10;;;12.70;99.90;;;;;;6233090;28;20243;-69
2021/05/12 08:13:05;;;;;;;0.30;0.27;;;12.60;99.90;;;;;;6230891;28;20245;-69
2021/05/12 08:16:08;;;;;;;0.97;0.30;;;12.50;99.90;;;;;;6232387;28;20261;-68
2021/05/12 08:19:13;;;;;;;0.60;0.23;;;12.40;99.90;;;;;;6217644;28;20376;-68
2021/05/12 08:22:15;;;;;;;0.20;0.20;;;12.30;99.90;;;;;;6215598;28;20242;-68
2021/05/12 08:25:18;;;;;;;2.00;0.30;;;12.30;99.90;;;;;;6233041;28;20281;-69
2021/05/12 08:28:21;;;;;;;1.87;0.23;;;12.30;99.90;;;;;;6233744;28;20233;-69
2021/05/12 08:31:24;;;;;;;1.73;0.30;;;12.30;99.90;;;;;;6234013;28;20234;-69
2021/05/12 08:34:27;;;;;;;0.20;0.20;;;12.30;99.90;;;;;;6214315;28;20722;-70
2021/05/12 08:37:30;;;;;;;1.80;0.23;;;12.30;99.90;;;;;;6238330;28;20739;-69
2021/05/12 08:40:33;;;;;;;0.67;0.20;;;12.30;99.90;;;;;;6221131;28;20736;-69
2021/05/12 08:43:38;;;;;;;0.20;0.20;;;12.50;99.90;;;;;;6230265;28;20281;-69
2021/05/12 08:46:42;;;;;;;0.93;0.30;;;12.60;99.90;;;;;;6230985;28;20249;-69
2021/05/12 08:49:47;;;;;;;0.40;0.30;;;12.60;99.90;;;;;;6242003;28;20251;-69
2021/05/12 08:52:50;;;;;;;0.27;0.20;;;12.70;99.90;;;;;;6256898;28;20230;-69
2021/05/12 08:55:52;;;;;;;2.03;0.50;;;12.60;99.90;;;;;;6258309;28;20232;-69
2021/05/12 08:58:57;;;;;;;0.43;0.20;;;12.60;99.90;;;;;;6258875;28;20236;-69
2021/05/12 09:01:59;;;;;;;1.07;0.20;;;12.60;99.90;;;;;;6239839;28;20323;-68
2021/05/12 09:05:05;;;;;;;0.50;0.30;;;12.60;99.90;;;;;;6257312;28;20238;-70
2021/05/12 09:08:08;;;;;;;1.00;0.30;;;12.50;99.90;;;;;;6258144;28;20237;-68
2021/05/12 09:11:11;;;;;;;0.60;0.30;;;12.40;99.90;;;;;;6238309;28;20228;-69
2021/05/12 09:14:34;;;;;;;1.73;0.40;;;12.40;99.90;;;;;;6238918;28;20664;-69
2021/05/12 09:17:40;;;;;;;0.37;0.33;;;12.30;99.90;;;;;;6238487;28;20704;-69
2021/05/12 09:20:45;;;;;;;1.30;0.50;;;12.20;99.90;;;;;;6253696;28;20245;-69
2021/05/12 09:23:48;;;;;;;0.80;0.40;;;12.20;99.90;;;;;;6256357;28;20230;-70
2021/05/12 09:26:53;;;;;;;0.53;0.40;;;12.20;99.90;;;;;;6239516;28;20234;-72
2021/05/12 09:30:02;;;;;;;2.40;0.33;;;12.30;99.90;;;;;;6242771;28;20235;-71
2021/05/12 09:33:07;;;;;;;0.83;0.40;;;12.40;99.90;;;;;;6241181;28;20311;-72
2021/05/12 09:36:24;;;;;;;0.20;0.20;;;12.60;99.90;;;;;;6256553;28;20237;-72
2021/05/12 09:39:26;;;;;;;0.30;0.30;;;12.90;99.90;;;;;;6218412;28;20670;-72
2021/05/12 09:42:29;;;;;;;0.33;0.33;;;13.20;99.90;;;;;;6214499;28;20250;-72
2021/05/12 09:45:37;;;;;;;0.20;0.20;;;13.50;99.90;;;;;;6218676;28;20338;-72
2021/05/12 09:48:45;;;;;;;0.63;0.20;;;13.80;99.90;;;;;;6219606;28;20236;-72
2021/05/12 09:51:48;;;;;;;0.20;0.20;;;14.20;99.90;;;;;;6233628;28;20316;-72
2021/05/12 09:55:03;;;;;;;0.60;0.30;;;14.50;99.90;;;;;;6240194;28;20235;-72
2021/05/12 09:58:09;;;;;;;0.20;0.20;;;14.90;99.90;;;;;;6243316;28;20238;-73
2021/05/12 10:01:11;;;;;;;1.20;0.20;;;15.20;99.90;;;;;;6259017;28;20233;-73
2021/05/12 10:04:33;;;;;;;1.03;0.40;;;15.40;99.90;;;;;;6255992;28;20226;-74
2021/05/12 10:07:35;;;;;;;0.30;0.30;;;15.60;99.90;;;;;;6254635;28;20644;-75
2021/05/12 10:10:41;;;;;;;1.00;0.27;;;15.40;99.90;;;;;;6236938;28;20231;-74
2021/05/12 10:13:43;;;;;;;0.30;0.30;;;15.10;99.90;;;;;;6230884;28;20243;-73
2021/05/12 10:16:49;;;;;;;0.30;0.30;;;14.80;99.90;;;;;;6225527;28;20602;-72
2021/05/12 10:19:52;;;;;;;1.90;0.37;;;14.70;99.90;;;;;;6223604;28;20231;-73
2021/05/12 10:22:57;;;;;;;1.23;0.40;;;14.60;99.90;;;;;;6208765;28;20264;-73
2021/05/12 10:25:59;;;;;;;0.30;0.30;;;14.70;99.90;;;;;;6236238;28;20235;-72
2021/05/12 10:29:02;;;;;;;0.40;0.30;;;14.70;99.90;;;;;;6218492;28;20259;-71
2021/05/12 10:32:14;;;;;;;0.50;0.40;;;14.70;99.90;;;;;;6231901;28;20234;-72
2021/05/12 10:35:17;;;;;;;0.63;0.30;;;14.70;99.90;;;;;;6207443;28;20279;-73
2021/05/12 10:38:33;;;;;;;0.20;0.20;;;14.70;99.90;;;;;;6207873;28;20299;-73
2021/05/12 10:41:47;;;;;;;0.90;0.60;;;14.70;99.90;;;;;;6189866;28;20279;-73
2021/05/12 10:44:50;;;;;;;1.23;0.30;;;14.70;99.90;;;;;;6208799;28;20316;-73
2021/05/12 10:47:53;;;;;;;0.50;0.20;;;14.80;99.90;;;;;;6190743;28;20684;-73
2021/05/12 10:50:56;;;;;;;0.40;0.40;;;14.90;99.90;;;;;;6227435;28;20279;-73
2021/05/12 10:54:02;;;;;;;2.60;0.40;;;15.20;99.90;;;;;;6257775;28;20250;-73
2021/05/12 10:57:05;;;;;;;0.50;0.40;;;15.30;99.90;;;;;;6253864;28;20689;-73
2021/05/12 11:00:08;;;;;;;0.30;0.30;;;15.60;99.90;;;;;;6237623;28;20642;-72
2021/05/12 11:03:11;;;;;;;0.80;0.40;;;15.90;99.90;;;;;;6238905;28;20191;-72
2021/05/12 11:06:14;;;;;;;0.80;0.60;;;16.30;99.90;;;;;;6263391;28;20687;-73
2021/05/12 11:09:39;;;;;;;0.90;0.70;;;16.60;99.90;;;;;;6245299;28;20233;-72
2021/05/12 11:12:41;;;;;;;0.60;0.60;;;16.90;99.90;;;;;;6266187;28;20598;-71
2021/05/12 11:15:58;;;;;;;1.87;0.80;;;17.20;99.90;;;;;;6262763;28;20304;-72
2021/05/12 11:19:00;;;;;;;0.80;0.63;;;17.50;99.90;;;;;;6241823;28;20234;-72
2021/05/12 11:25:41;;;;;;;0.60;0.60;;;17.90;99.90;;;;;;6240895;28;20234;-71
2021/05/12 11:31:26;;;;;;;0.57;0.57;;;17.90;99.90;;;;;;6260250;28;20318;-70
2021/05/12 11:32:18;;;;;;;0.60;0.60;;;17.90;99.90;;;;;;6255906;28;20277;-70
2021/05/12 11:35:20;;;;;;;0.63;0.63;;;17.90;99.90;;;;;;6239947;28;20226;-70
2021/05/12 11:38:23;;;;;;;1.03;0.80;;;17.80;99.90;;;;;;6257448;28;20229;-72
2021/05/12 11:41:26;;;;;;;0.60;0.60;;;17.60;99.90;;;;;;6200499;28;20252;-72
2021/05/12 11:44:29;;;;;;;0.90;0.70;;;17.60;99.90;;;;;;6233226;28;20282;-71
2021/05/12 11:47:33;;;;;;;0.50;0.50;;;17.80;99.90;;;;;;6234418;28;20561;-71
2021/05/12 11:50:36;;;;;;;1.20;0.47;;;18.10;99.90;;;;;;6239278;28;20273;-71
2021/05/12 11:53:41;;;;;;;0.40;0.40;;;18.60;99.90;;;;;;6232232;28;20654;-71
2021/05/12 11:56:46;;;;;;;0.60;0.40;;;19.10;99.90;;;;;;6207869;28;20228;-71
2021/05/12 11:59:49;;;;;;;2.37;0.50;;;19.50;99.90;;;;;;6231368;28;20240;-71
2021/05/12 12:03:01;;;;;;;1.60;0.40;;;20.10;99.90;;;;;;6216130;28;20239;-71
2021/05/12 12:06:05;;;;;;;0.70;0.40;;;20.40;99.90;;;;;;6233400;28;20219;-71
2021/05/12 12:09:09;;;;;;;1.53;0.37;;;20.50;99.90;;;;;;6194269;28;20584;-72
2021/05/12 12:12:12;;;;;;;0.30;0.30;;;20.30;99.60;;;;;;6228395;28;20216;-72
2021/05/12 12:15:14;;;;;;;1.60;0.50;;;20.30;98.70;;;;;;6213024;28;20612;-70
2021/05/12 12:18:31;;;;;;;1.73;0.60;;;20.30;99.90;;;;;;6215916;28;20755;-71
2021/05/12 12:21:35;;;;;;;0.37;0.37;;;20.70;99.90;;;;;;6191576;28;20220;-71
2021/05/12 12:24:38;;;;;;;0.63;0.60;;;21.20;97.20;;;;;;6189065;28;20228;-71
2021/05/12 12:27:42;;;;;;;1.53;0.80;;;21.30;97.50;;;;;;6174366;28;20224;-71
2021/05/12 12:30:46;;;;;;;2.37;0.60;;;21.10;97.20;;;;;;6191076;28;20327;-73
2021/05/12 12:34:17;;;;;;;1.07;0.60;;;20.80;97.30;;;;;;6205854;28;20594;-72
2021/05/12 12:37:30;;;;;;;0.70;0.70;;;20.10;94.80;;;;;;6190474;28;20706;-72
2021/05/12 12:40:44;;;;;;;0.70;0.70;;;19.50;95.80;;;;;;6208403;28;20271;-72
2021/05/12 12:43:50;;;;;;;0.70;0.60;;;19.20;98.40;;;;;;6214476;28;20599;-71
2021/05/12 12:46:58;;;;;;;1.60;0.70;;;19.00;98.40;;;;;;6232646;28;20302;-71
2021/05/12 12:50:07;;;;;;;0.80;0.80;;;19.10;97.60;;;;;;6243901;28;20239;-71
2021/05/12 12:53:18;;;;;;;0.77;0.60;;;19.00;98.50;;;;;;6212165;28;20239;-70
2021/05/12 12:56:21;;;;;;;1.00;1.00;;;19.10;98.70;;;;;;6233259;28;20717;-71
2021/05/12 12:59:23;;;;;;;0.70;0.70;;;19.10;98.10;;;;;;6211978;28;20234;-71
2021/05/12 13:02:26;;;;;;;0.87;0.87;;;19.00;97.80;;;;;;6214471;28;20228;-71
2021/05/12 13:05:34;;;;;;;1.57;1.00;;;19.10;97.50;;;;;;6230459;28;20282;-71
2021/05/12 13:08:39;;;;;;;0.80;0.80;;;19.10;96.70;;;;;;6231796;28;20332;-71
2021/05/12 13:11:56;;;;;;;0.90;0.70;;;19.30;97.30;;;;;;6207548;28;20229;-70
2021/05/12 13:14:59;;;;;;;1.10;0.60;;;19.50;95.70;;;;;;6190524;28;20228;-71
2021/05/12 13:18:07;;;;;;;2.50;0.50;;;19.60;97.20;;;;;;6188123;28;20228;-71
2021/05/12 13:21:16;;;;;;;0.77;0.77;;;19.40;96.40;;;;;;6228516;28;20223;-70
2021/05/12 13:24:31;;;;;;;0.77;0.60;;;19.40;96.10;;;;;;6228309;28;20229;-71
2021/05/12 13:27:33;;;;;;;0.90;0.60;;;19.50;96.60;;;;;;6247097;28;20223;-71
2021/05/12 13:30:36;;;;;;;1.43;0.60;;;20.20;97.10;;;;;;6228985;28;20377;-73
2021/05/12 13:33:38;;;;;;;0.70;0.50;;;20.90;94.60;;;;;;6234703;28;20244;-71
2021/05/12 13:36:43;;;;;;;0.60;0.60;;;21.60;93.90;;;;;;6236996;28;20227;-72
2021/05/12 13:39:50;;;;;;;0.43;0.40;;;22.30;92.70;;;;;;6243812;28;20318;-71
2021/05/12 13:42:52;;;;;;;1.30;0.70;;;22.70;91.30;;;;;;6229986;28;20231;-72
2021/05/12 13:45:55;;;;;;;0.70;0.70;;;22.50;84.10;;;;;;6230227;28;20374;-72
2021/05/12 13:48:57;;;;;;;0.87;0.50;;;22.00;82.60;;;;;;6213264;28;20232;-71
2021/05/12 13:52:04;;;;;;;0.47;0.47;;;21.50;84.40;;;;;;6255765;28;20223;-71
2021/05/12 13:55:12;;;;;;;0.90;0.60;;;21.30;89.50;;;;;;6238371;28;20254;-72
2021/05/12 14:05:00;;;;;;;0.70;0.70;;;20.10;90.10;;;;;;6164419;28;20578;-71
2021/05/12 14:08:03;;;;;;;0.50;0.43;;;19.80;90.80;;;;;;6237627;28;20316;-71
2021/05/12 14:11:07;;;;;;;0.60;0.60;;;19.60;91.50;;;;;;6235563;28;20243;-71
2021/05/12 14:17:31;;;;;;;0.47;0.47;;;19.50;93.00;;;;;;6230257;28;20301;-71
2021/05/12 14:20:35;;;;;;;0.83;0.50;;;19.50;93.30;;;;;;6228161;28;20763;-72
2021/05/12 14:23:37;;;;;;;0.57;0.50;;;19.20;93.10;;;;;;6235569;28;20234;-71
2021/05/12 14:26:39;;;;;;;0.40;0.40;;;19.10;93.90;;;;;;6254173;28;20234;-71
2021/05/12 14:29:43;;;;;;;1.07;0.60;;;18.90;94.50;;;;;;6235714;28;20249;-71
2021/05/12 14:32:50;;;;;;;0.70;0.70;;;18.70;95.50;;;;;;6255628;28;20243;-71
2021/05/12 14:35:54;;;;;;;1.43;0.40;;;18.60;96.40;;;;;;6235408;28;20245;-72
2021/05/12 14:38:56;;;;;;;0.90;0.60;;;18.50;97.20;;;;;;6233671;28;20246;-72
2021/05/12 14:42:00;;;;;;;0.60;0.60;;;18.30;97.60;;;;;;6217546;28;20227;-72
2021/05/12 14:45:03;;;;;;;0.50;0.50;;;18.10;98.00;;;;;;6234649;28;20220;-72
2021/05/12 14:48:09;;;;;;;0.80;0.50;;;18.10;99.90;;;;;;6235125;28;20294;-71
2021/05/12 14:51:19;;;;;;;0.70;0.40;;;18.00;99.90;;;;;;6195230;28;20244;-71
2021/05/12 14:54:25;;;;;;;0.63;0.40;;;18.00;99.90;;;;;;6224046;28;20595;-72
2021/05/12 14:58:07;;;;;;;1.03;0.33;;;17.90;99.90;;;;;;6217929;28;20223;-72
2021/05/12 15:01:18;;;;;;;0.40;0.40;;;17.80;99.90;;;;;;6215392;28;20232;-72
2021/05/12 15:07:38;;;;;;;1.43;0.30;;;17.30;99.90;;;;;;6216782;28;20244;-71
2021/05/12 15:10:42;;;;;;;0.30;0.23;;;17.20;99.90;;;;;;6232843;28;20238;-71
2021/05/12 15:13:45;;;;;;;0.93;0.40;;;17.20;99.90;;;;;;6216458;28;20712;-71
2021/05/12 15:16:47;;;;;;;0.30;0.30;;;17.30;99.90;;;;;;6234737;28;20237;-72
2021/05/12 15:19:50;;;;;;;0.30;0.30;;;17.50;99.90;;;;;;6223595;28;20235;-72
2021/05/12 15:22:52;;;;;;;0.50;0.33;;;18.00;99.90;;;;;;6242005;28;20264;-72
2021/05/12 15:25:55;;;;;;;0.73;0.40;;;18.30;99.90;;;;;;6243592;28;20233;-71
2021/05/12 15:28:57;;;;;;;0.20;0.20;;;18.50;99.00;;;;;;6261800;28;20245;-71
2021/05/12 15:32:00;;;;;;;0.20;0.20;;;18.60;99.00;;;;;;6245057;28;20273;-71
2021/05/12 15:35:03;;;;;;;0.27;0.23;;;18.60;99.30;;;;;;6245150;28;20712;-71
2021/05/12 15:38:06;;;;;;;0.37;0.37;;;18.50;98.70;;;;;;6232070;28;20219;-72
2021/05/12 15:41:08;;;;;;;0.40;0.30;;;18.30;98.90;;;;;;6212982;28;20236;-72
2021/05/12 15:44:11;;;;;;;0.33;0.30;;;18.10;97.90;;;;;;6215473;28;20236;-71
2021/05/12 15:47:13;;;;;;;1.70;0.30;;;17.90;99.00;;;;;;6215470;28;20235;-71
2021/05/12 15:50:16;;;;;;;0.30;0.30;;;17.90;98.40;;;;;;6232677;28;20316;-72
2021/05/12 15:53:23;;;;;;;0.50;0.40;;;17.80;98.20;;;;;;6232160;28;20224;-71
2021/05/12 15:56:26;;;;;;;0.27;0.27;;;18.00;98.00;;;;;;6233022;28;20306;-71
2021/05/12 15:59:31;;;;;;;1.33;0.30;;;18.10;98.00;;;;;;6231975;28;20724;-72
2021/05/12 16:02:34;;;;;;;0.20;0.20;;;17.60;97.60;;;;;;6231362;28;20220;-71
2021/05/12 16:05:37;;;;;;;0.13;0.13;;;17.10;99.20;;;;;;6233174;28;20644;-71
2021/05/12 16:08:41;;;;;;;1.47;0.30;;;16.80;99.90;;;;;;6216590;28;22345;-71
2021/05/12 16:11:43;;;;;;;1.50;0.40;;;16.50;99.90;;;;;;6212885;28;20259;-72
2021/05/12 16:14:46;;;;;;;0.30;0.20;;;16.20;99.90;;;;;;6213045;28;20577;-72
2021/05/12 16:17:48;;;;;;;0.73;0.30;;;16.00;99.90;;;;;;6191010;28;20228;-71
2021/05/12 16:20:52;;;;;;;0.30;0.30;;;15.80;99.90;;;;;;6232429;28;20239;-73
2021/05/12 16:23:55;;;;;;;0.30;0.23;;;15.70;99.90;;;;;;6231099;28;20235;-71